Time;durP1;ratioP1;P1;durP2;ratioP2;P2;SDS_P1;SDS_P2;PMS_P1;PMS_P2;Temp;Humidity;BMP_temperature;BMP_pressure;BME280_temperature;BME280_humidity;BME280_pressure;Samples;Min_cycle;Max_cycle;Signal;HPM_P1;HPM_P2
2023/06/12 00:00:56;;;;;;;;;;;;;;;;;;5066784;28;19925;-82
2023/06/12 00:03:28;;;;;;;;;;;;;;;;;;5065626;28;19925;-82
2023/06/12 00:05:58;;;;;;;;;;;;;;;;;;5060515;28;19928;-81
2023/06/12 00:08:31;;;;;;;;;;;;;;;;;;5077425;28;19925;-82
2023/06/12 00:10:58;;;;;;;;;;;;;;;;;;5067220;28;19935;-82
2023/06/12 00:13:31;;;;;;;;;;;;;;;;;;5058037;28;19925;-82
2023/06/12 00:16:03;;;;;;;;;;;;;;;;;;5080679;28;19935;-82
2023/06/12 00:18:38;;;;;;;;;;;;;;;;;;5068790;28;20373;-83
2023/06/12 00:21:05;;;;;;;;;;;;;;;;;;5062428;28;19928;-82
2023/06/12 00:23:33;;;;;;;;;;;;;;;;;;5065086;28;20399;-82
2023/06/12 00:26:05;;;;;;;;;;;;;;;;;;5065017;28;20292;-82
2023/06/12 00:28:40;;;;;;;;;;;;;;;;;;5068551;28;19929;-83
2023/06/12 00:31:13;;;;;;;;;;;;;;;;;;5066984;28;19928;-83
2023/06/12 00:33:40;;;;;;;;;;;;;;;;;;5065702;28;19925;-83
2023/06/12 00:36:13;;;;;;;;;;;;;;;;;;5058966;28;19939;-82
2023/06/12 00:38:41;;;;;;;;;;;;;;;;;;5062478;28;19940;-82
2023/06/12 00:41:08;;;;;;;;;;;;;;;;;;5063549;28;19936;-82
2023/06/12 00:43:36;;;;;;;;;;;;;;;;;;5058077;28;20305;-83
2023/06/12 00:46:03;;;;;;;;;;;;;;;;;;5063896;28;19929;-82
2023/06/12 00:48:31;;;;;;;;;;;;;;;;;;5065514;28;20528;-81
2023/06/12 00:50:59;;;;;;;;;;;;;;;;;;5062262;28;19924;-82
2023/06/12 00:53:26;;;;;;;;;;;;;;;;;;5065191;28;19928;-82
2023/06/12 00:55:55;;;;;;;;;;;;;;;;;;5065878;28;19982;-82
2023/06/12 00:58:22;;;;;;;;;;;;;;;;;;5068285;28;20366;-82
2023/06/12 01:00:50;;;;;;;;;;;;;;;;;;5063768;28;19925;-82
2023/06/12 01:03:18;;;;;;;;;;;;;;;;;;5061535;28;19933;-82
2023/06/12 01:05:45;;;;;;;;;;;;;;;;;;5070278;28;19928;-82
2023/06/12 01:08:16;;;;;;;;;;;;;;;;;;5063979;28;19929;-82
2023/06/12 01:10:45;;;;;;;;;;;;;;;;;;5065086;28;19929;-81
2023/06/12 01:13:13;;;;;;;;;;;;;;;;;;5064146;28;20431;-83
2023/06/12 01:15:41;;;;;;;;;;;;;;;;;;5063221;28;19928;-81
2023/06/12 01:18:08;;;;;;;;;;;;;;;;;;5070682;28;19934;-82
2023/06/12 01:20:42;;;;;;;;;;;;;;;;;;5081103;28;19951;-82
2023/06/12 01:23:15;;;;;;;;;;;;;;;;;;5070754;28;19935;-82
2023/06/12 01:25:43;;;;;;;;;;;;;;;;;;5065941;28;19925;-83
2023/06/12 01:28:15;;;;;;;;;;;;;;;;;;5070690;28;19924;-83
2023/06/12 01:30:43;;;;;;;;;;;;;;;;;;5060519;28;19925;-82
2023/06/12 01:33:12;;;;;;;;;;;;;;;;;;5065335;28;20269;-83
2023/06/12 01:35:46;;;;;;;;;;;;;;;;;;5064813;28;19931;-82
2023/06/12 01:38:14;;;;;;;;;;;;;;;;;;5082377;28;19928;-83
2023/06/12 01:40:48;;;;;;;;;;;;;;;;;;5062998;28;19924;-82
2023/06/12 01:43:22;;;;;;;;;;;;;;;;;;5065776;28;19932;-83
2023/06/12 01:45:49;;;;;;;;;;;;;;;;;;5065762;28;19925;-83
2023/06/12 01:48:17;;;;;;;;;;;;;;;;;;5059720;28;19928;-82
2023/06/12 01:50:45;;;;;;;;;;;;;;;;;;5068714;28;19936;-83
2023/06/12 01:53:15;;;;;;;;;;;;;;;;;;5060191;28;19932;-83
2023/06/12 01:55:44;;;;;;;;;;;;;;;;;;5061450;28;19932;-82
2023/06/12 01:58:19;;;;;;;;;;;;;;;;;;5060369;28;20484;-82
2023/06/12 02:01:05;;;;;;;;;;;;;;;;;;5061744;28;19925;-82
2023/06/12 02:03:36;;;;;;;;;;;;;;;;;;5062060;28;20277;-82
2023/06/12 02:06:04;;;;;;;;;;;;;;;;;;5070006;28;19966;-82
2023/06/12 02:08:31;;;;;;;;;;;;;;;;;;5071136;28;19928;-82
2023/06/12 02:10:59;;;;;;;;;;;;;;;;;;5062010;28;19963;-82
2023/06/12 02:13:26;;;;;;;;;;;;;;;;;;5061864;28;19929;-82
2023/06/12 02:15:59;;;;;;;;;;;;;;;;;;5058613;28;19936;-82
2023/06/12 02:18:30;;;;;;;;;;;;;;;;;;5068553;28;19924;-82
2023/06/12 02:21:02;;;;;;;;;;;;;;;;;;5061563;28;19928;-82
2023/06/12 02:23:35;;;;;;;;;;;;;;;;;;5064128;28;19951;-82
2023/06/12 02:26:07;;;;;;;;;;;;;;;;;;5061299;28;19929;-82
2023/06/12 02:28:35;;;;;;;;;;;;;;;;;;5063439;28;19928;-82
2023/06/12 02:31:03;;;;;;;;;;;;;;;;;;5063206;28;19937;-81
2023/06/12 02:33:33;;;;;;;;;;;;;;;;;;5069383;28;19935;-83
2023/06/12 02:36:02;;;;;;;;;;;;;;;;;;5062867;28;20384;-82
2023/06/12 02:38:30;;;;;;;;;;;;;;;;;;5055579;28;19944;-82
2023/06/12 02:41:03;;;;;;;;;;;;;;;;;;5058413;28;19935;-82
2023/06/12 02:43:35;;;;;;;;;;;;;;;;;;5066144;28;20312;-82
2023/06/12 02:46:03;;;;;;;;;;;;;;;;;;5060648;28;19937;-82
2023/06/12 02:48:31;;;;;;;;;;;;;;;;;;5069867;28;19929;-81
2023/06/12 02:51:02;;;;;;;;;;;;;;;;;;5058691;28;19924;-82
2023/06/12 02:53:35;;;;;;;;;;;;;;;;;;5059326;28;19940;-80
2023/06/12 02:56:07;;;;;;;;;;;;;;;;;;5067239;28;19932;-81
2023/06/12 02:58:35;;;;;;;;;;;;;;;;;;5059360;28;19944;-80
2023/06/12 03:01:07;;;;;;;;;;;;;;;;;;5066027;28;20538;-81
2023/06/12 03:03:35;;;;;;;;;;;;;;;;;;5067717;28;19935;-82
2023/06/12 03:06:08;;;;;;;;;;;;;;;;;;5061037;28;19929;-82
2023/06/12 03:08:41;;;;;;;;;;;;;;;;;;5063019;28;20002;-83
2023/06/12 03:11:08;;;;;;;;;;;;;;;;;;5061534;28;19928;-81
2023/06/12 03:13:36;;;;;;;;;;;;;;;;;;5062055;28;19928;-81
2023/06/12 03:16:04;;;;;;;;;;;;;;;;;;5069093;28;19935;-82
2023/06/12 03:18:36;;;;;;;;;;;;;;;;;;5068673;28;19928;-81
2023/06/12 03:21:04;;;;;;;;;;;;;;;;;;5074226;28;19925;-81
2023/06/12 03:23:32;;;;;;;;;;;;;;;;;;5057495;28;19936;-81
2023/06/12 03:26:00;;;;;;;;;;;;;;;;;;5059537;28;19936;-81
2023/06/12 03:28:34;;;;;;;;;;;;;;;;;;5060655;28;20399;-80
2023/06/12 03:31:02;;;;;;;;;;;;;;;;;;5054463;28;19924;-81
2023/06/12 03:33:32;;;;;;;;;;;;;;;;;;5068186;28;19929;-81
2023/06/12 03:36:08;;;;;;;;;;;;;;;;;;5067224;28;19928;-80
2023/06/12 03:38:36;;;;;;;;;;;;;;;;;;5058864;28;19931;-81
2023/06/12 03:41:04;;;;;;;;;;;;;;;;;;5066841;28;19925;-80
2023/06/12 03:43:31;;;;;;;;;;;;;;;;;;5061469;28;19928;-81
2023/06/12 03:45:59;;;;;;;;;;;;;;;;;;5062748;28;20403;-81
2023/06/12 03:48:27;;;;;;;;;;;;;;;;;;5064440;28;19925;-81
2023/06/12 03:50:59;;;;;;;;;;;;;;;;;;5062086;28;19924;-81
2023/06/12 03:53:27;;;;;;;;;;;;;;;;;;5081379;28;19929;-81
2023/06/12 03:56:00;;;;;;;;;;;;;;;;;;5071377;28;19935;-81
2023/06/12 03:58:29;;;;;;;;;;;;;;;;;;5060798;28;20372;-81
2023/06/12 04:00:57;;;;;;;;;;;;;;;;;;5071943;28;19928;-82
2023/06/12 04:03:25;;;;;;;;;;;;;;;;;;5069909;28;19924;-80
2023/06/12 04:05:58;;;;;;;;;;;;;;;;;;5070346;28;19932;-81
2023/06/12 04:08:25;;;;;;;;;;;;;;;;;;5059657;28;19939;-80
2023/06/12 04:10:53;;;;;;;;;;;;;;;;;;5064032;28;19928;-81
2023/06/12 04:13:21;;;;;;;;;;;;;;;;;;5059253;28;19939;-80
2023/06/12 04:15:50;;;;;;;;;;;;;;;;;;5063526;28;19932;-81
2023/06/12 04:18:18;;;;;;;;;;;;;;;;;;5071230;28;19951;-82
2023/06/12 04:20:50;;;;;;;;;;;;;;;;;;5063437;28;19925;-81
2023/06/12 04:23:26;;;;;;;;;;;;;;;;;;5071413;28;19935;-81
2023/06/12 04:26:04;;;;;;;;;;;;;;;;;;5066631;28;19932;-81
2023/06/12 04:28:32;;;;;;;;;;;;;;;;;;5059281;28;19952;-82
2023/06/12 04:31:00;;;;;;;;;;;;;;;;;;5072325;28;20295;-82
2023/06/12 04:33:30;;;;;;;;;;;;;;;;;;5060941;28;19925;-81
2023/06/12 04:35:57;;;;;;;;;;;;;;;;;;5079577;28;19932;-80
2023/06/12 04:38:25;;;;;;;;;;;;;;;;;;5069796;28;19925;-81
2023/06/12 04:40:54;;;;;;;;;;;;;;;;;;5062345;28;20387;-80
2023/06/12 04:43:23;;;;;;;;;;;;;;;;;;5063483;28;20705;-81
2023/06/12 04:45:51;;;;;;;;;;;;;;;;;;5070934;28;19929;-80
2023/06/12 04:48:20;;;;;;;;;;;;;;;;;;5075607;28;19925;-80
2023/06/12 04:50:48;;;;;;;;;;;;;;;;;;5070704;28;19959;-81
2023/06/12 04:53:30;;;;;;;;;;;;;;;;;;5068522;28;19968;-80
2023/06/12 04:56:05;;;;;;;;;;;;;;;;;;5062743;28;19978;-83
2023/06/12 04:58:37;;;;;;;;;;;;;;;;;;5075433;28;19935;-81
2023/06/12 05:01:10;;;;;;;;;;;;;;;;;;5061557;28;19936;-81
2023/06/12 05:03:43;;;;;;;;;;;;;;;;;;5074996;28;19932;-80
2023/06/12 05:06:12;;;;;;;;;;;;;;;;;;5067827;28;19931;-81
2023/06/12 05:08:40;;;;;;;;;;;;;;;;;;5068257;28;19943;-81
2023/06/12 05:11:07;;;;;;;;;;;;;;;;;;5060636;28;19940;-81
2023/06/12 05:13:35;;;;;;;;;;;;;;;;;;5057651;28;19925;-85
2023/06/12 05:16:02;;;;;;;;;;;;;;;;;;5063786;28;20270;-81
2023/06/12 05:18:35;;;;;;;;;;;;;;;;;;5066152;28;19932;-81
2023/06/12 05:21:03;;;;;;;;;;;;;;;;;;5061851;28;19928;-80
2023/06/12 05:23:31;;;;;;;;;;;;;;;;;;5063075;28;19925;-80
2023/06/12 05:25:59;;;;;;;;;;;;;;;;;;5073794;28;19928;-80
2023/06/12 05:28:26;;;;;;;;;;;;;;;;;;5068448;28;19939;-80
2023/06/12 05:30:54;;;;;;;;;;;;;;;;;;5060910;28;19936;-81
2023/06/12 05:33:26;;;;;;;;;;;;;;;;;;5064671;28;19932;-82
2023/06/12 05:35:54;;;;;;;;;;;;;;;;;;5068693;28;19928;-81
2023/06/12 05:38:30;;;;;;;;;;;;;;;;;;5063412;28;19944;-82
2023/06/12 05:41:02;;;;;;;;;;;;;;;;;;5063973;28;20570;-80
2023/06/12 05:43:35;;;;;;;;;;;;;;;;;;5079369;28;19936;-83
2023/06/12 05:46:03;;;;;;;;;;;;;;;;;;5063970;28;19929;-82
2023/06/12 05:48:36;;;;;;;;;;;;;;;;;;5057483;28;19924;-81
2023/06/12 05:51:04;;;;;;;;;;;;;;;;;;5061159;28;20297;-82
2023/06/12 05:53:37;;;;;;;;;;;;;;;;;;5068080;28;19932;-82
2023/06/12 05:56:05;;;;;;;;;;;;;;;;;;5059794;28;19936;-79
2023/06/12 05:58:38;;;;;;;;;;;;;;;;;;5061300;28;19928;-82
2023/06/12 06:01:10;;;;;;;;;;;;;;;;;;5060661;28;20206;-81
2023/06/12 06:03:54;;;;;;;;;;;;;;;;;;5059149;28;19929;-81
2023/06/12 06:06:21;;;;;;;;;;;;;;;;;;5068104;28;20293;-84
2023/06/12 06:08:50;;;;;;;;;;;;;;;;;;5063836;28;19936;-81
2023/06/12 06:11:19;;;;;;;;;;;;;;;;;;5059258;28;19959;-81
2023/06/12 06:13:47;;;;;;;;;;;;;;;;;;5057201;28;20263;-80
2023/06/12 06:16:15;;;;;;;;;;;;;;;;;;5078634;28;19939;-85
2023/06/12 06:18:42;;;;;;;;;;;;;;;;;;5063669;28;20404;-83
2023/06/12 06:21:11;;;;;;;;;;;;;;;;;;5065375;28;19928;-84
2023/06/12 06:23:38;;;;;;;;;;;;;;;;;;5058041;28;19925;-83
2023/06/12 06:26:06;;;;;;;;;;;;;;;;;;5063784;28;20388;-85
2023/06/12 06:28:34;;;;;;;;;;;;;;;;;;5069929;28;19929;-82
2023/06/12 06:31:03;;;;;;;;;;;;;;;;;;5065056;28;19924;-80
2023/06/12 06:33:32;;;;;;;;;;;;;;;;;;5063885;28;19932;-83
2023/06/12 06:35:59;;;;;;;;;;;;;;;;;;5064993;28;20401;-84
2023/06/12 06:38:27;;;;;;;;;;;;;;;;;;5061484;28;19932;-83
2023/06/12 06:40:55;;;;;;;;;;;;;;;;;;5077329;28;19932;-83
2023/06/12 06:43:22;;;;;;;;;;;;;;;;;;5066732;28;19925;-83
2023/06/12 06:46:00;;;;;;;;;;;;;;;;;;5060760;28;19943;-82
2023/06/12 06:48:28;;;;;;;;;;;;;;;;;;5039587;28;19932;-81
2023/06/12 06:50:57;;;;;;;;;;;;;;;;;;5037431;28;20573;-83
2023/06/12 06:53:25;;;;;;;;;;;;;;;;;;5038190;28;19940;-82
2023/06/12 06:55:52;;;;;;;;;;;;;;;;;;5043948;28;20320;-82
2023/06/12 06:58:25;;;;;;;;;;;;;;;;;;5046176;28;19932;-85
2023/06/12 07:00:53;;;;;;;;;;;;;;;;;;5050858;28;19925;-82
2023/06/12 07:03:27;;;;;;;;;;;;;;;;;;5045200;28;19933;-81
2023/06/12 07:06:00;;;;;;;;;;;;;;;;;;5042586;28;21171;-81
2023/06/12 07:08:28;;;;;;;;;;;;;;;;;;5048784;28;19932;-83
2023/06/12 07:10:55;;;;;;;;;;;;;;;;;;5060743;28;19933;-81
2023/06/12 07:13:23;;;;;;;;;;;;;;;;;;5044246;28;19940;-83
2023/06/12 07:15:54;;;;;;;;;;;;;;;;;;5055679;28;19932;-83
2023/06/12 07:18:23;;;;;;;;;;;;;;;;;;5046536;28;19932;-80
2023/06/12 07:20:50;;;;;;;;;;;;;;;;;;5042550;28;19932;-82
2023/06/12 07:23:19;;;;;;;;;;;;;;;;;;5046622;28;19932;-81
2023/06/12 07:25:47;;;;;;;;;;;;;;;;;;5044584;28;19940;-83
2023/06/12 07:28:14;;;;;;;;;;;;;;;;;;5049056;28;20596;-83
2023/06/12 07:30:42;;;;;;;;;;;;;;;;;;5031312;28;19932;-83
2023/06/12 07:33:10;;;;;;;;;;;;;;;;;;5037363;28;19932;-82
2023/06/12 07:35:38;;;;;;;;;;;;;;;;;;5036954;28;19932;-81
2023/06/12 07:38:06;;;;;;;;;;;;;;;;;;5040233;28;19933;-83
2023/06/12 07:40:34;;;;;;;;;;;;;;;;;;5038867;28;20562;-81
2023/06/12 07:43:06;;;;;;;;;;;;;;;;;;5039292;28;19940;-80
2023/06/12 07:45:40;;;;;;;;;;;;;;;;;;5038453;28;19940;-82
2023/06/12 07:48:08;;;;;;;;;;;;;;;;;;5043812;28;20706;-84
2023/06/12 07:50:42;;;;;;;;;;;;;;;;;;5042427;28;19933;-82
2023/06/12 07:53:10;;;;;;;;;;;;;;;;;;5046829;28;19939;-82
2023/06/12 07:55:43;;;;;;;;;;;;;;;;;;5038478;28;19932;-83
2023/06/12 07:58:12;;;;;;;;;;;;;;;;;;5040391;28;19946;-83
2023/06/12 08:00:40;;;;;;;;;;;;;;;;;;5041319;28;19939;-80
2023/06/12 08:03:15;;;;;;;;;;;;;;;;;;5043182;28;20731;-81
2023/06/12 08:05:43;;;;;;;;;;;;;;;;;;5042423;28;19948;-82
2023/06/12 08:08:13;;;;;;;;;;;;;;;;;;5046018;28;19971;-81
2023/06/12 08:10:42;;;;;;;;;;;;;;;;;;5038357;28;19939;-81
2023/06/12 08:13:11;;;;;;;;;;;;;;;;;;5037376;28;19936;-82
2023/06/12 08:15:39;;;;;;;;;;;;;;;;;;5044005;28;19933;-80
2023/06/12 08:18:13;;;;;;;;;;;;;;;;;;5041090;28;19939;-80
2023/06/12 08:20:40;;;;;;;;;;;;;;;;;;5039622;28;19928;-82
2023/06/12 08:23:13;;;;;;;;;;;;;;;;;;5048688;28;20269;-82
2023/06/12 08:25:41;;;;;;;;;;;;;;;;;;5049796;28;19932;-82
2023/06/12 08:28:13;;;;;;;;;;;;;;;;;;5032747;28;22173;-82
2023/06/12 08:30:41;;;;;;;;;;;;;;;;;;5037743;28;19932;-81
2023/06/12 08:33:10;;;;;;;;;;;;;;;;;;5044506;28;19932;-81
2023/06/12 08:35:43;;;;;;;;;;;;;;;;;;5045869;28;20578;-81
2023/06/12 08:38:12;;;;;;;;;;;;;;;;;;5044402;28;20595;-80
2023/06/12 08:40:39;;;;;;;;;;;;;;;;;;5041254;28;19940;-86
2023/06/12 08:43:07;;;;;;;;;;;;;;;;;;5042075;28;20296;-79
2023/06/12 08:45:35;;;;;;;;;;;;;;;;;;5037877;28;19933;-81
2023/06/12 08:48:07;;;;;;;;;;;;;;;;;;5040206;28;19939;-79
2023/06/12 08:50:35;;;;;;;;;;;;;;;;;;5055887;28;19939;-79
2023/06/12 08:53:12;;;;;;;;;;;;;;;;;;5044677;28;20323;-83
2023/06/12 08:55:40;;;;;;;;;;;;;;;;;;5043531;28;19951;-81
2023/06/12 08:58:12;;;;;;;;;;;;;;;;;;5043948;28;19932;-81
2023/06/12 09:00:45;;;;;;;;;;;;;;;;;;5048504;28;19932;-80
2023/06/12 09:03:12;;;;;;;;;;;;;;;;;;5037801;28;19939;-80
2023/06/12 09:05:45;;;;;;;;;;;;;;;;;;5040314;28;19933;-81
2023/06/12 09:08:13;;;;;;;;;;;;;;;;;;5041226;28;19933;-82
2023/06/12 09:10:40;;;;;;;;;;;;;;;;;;5048703;28;19928;-82
2023/06/12 09:13:08;;;;;;;;;;;;;;;;;;5037877;28;19933;-80
2023/06/12 09:15:35;;;;;;;;;;;;;;;;;;5022967;28;19933;-80
2023/06/12 09:18:08;;;;;;;;;;;;;;;;;;5051866;28;19932;-80
2023/06/12 09:20:40;;;;;;;;;;;;;;;;;;5036109;28;19995;-79
2023/06/12 09:23:08;;;;;;;;;;;;;;;;;;5037184;28;20320;-81
2023/06/12 09:25:40;;;;;;;;;;;;;;;;;;5040477;28;20356;-82
2023/06/12 09:28:09;;;;;;;;;;;;;;;;;;5046863;28;19932;-81
2023/06/12 09:30:36;;;;;;;;;;;;;;;;;;5036493;28;19932;-82
2023/06/12 09:33:09;;;;;;;;;;;;;;;;;;5040551;28;19933;-80
2023/06/12 09:35:37;;;;;;;;;;;;;;;;;;5043442;28;19967;-79
2023/06/12 09:38:06;;;;;;;;;;;;;;;;;;5044540;28;19964;-81
2023/06/12 09:40:57;;;;;;;;;;;;;;;;;;5022292;28;19943;-80
2023/06/12 09:43:25;;;;;;;;;;;;;;;;;;5039856;28;19932;-81
2023/06/12 09:45:52;;;;;;;;;;;;;;;;;;5009125;28;19939;-81
2023/06/12 09:48:20;;;;;;;;;;;;;;;;;;5040969;28;19940;-79
2023/06/12 09:50:53;;;;;;;;;;;;;;;;;;5036858;28;19943;-83
2023/06/12 09:53:26;;;;;;;;;;;;;;;;;;5037724;28;19954;-82
2023/06/12 09:55:54;;;;;;;;;;;;;;;;;;5037938;28;21614;-81
2023/06/12 09:58:21;;;;;;;;;;;;;;;;;;5037224;28;19928;-80
2023/06/12 10:00:50;;;;;;;;;;;;;;;;;;5036981;28;19932;-80
2023/06/12 10:03:22;;;;;;;;;;;;;;;;;;5043744;28;19955;-83
2023/06/12 10:05:50;;;;;;;;;;;;;;;;;;5043463;28;20879;-81
2023/06/12 10:08:23;;;;;;;;;;;;;;;;;;5040974;28;19941;-80
2023/06/12 10:10:50;;;;;;;;;;;;;;;;;;5041896;28;19932;-82
2023/06/12 10:13:18;;;;;;;;;;;;;;;;;;5043426;28;19932;-80
2023/06/12 10:15:50;;;;;;;;;;;;;;;;;;5045155;28;19935;-81
2023/06/12 10:18:18;;;;;;;;;;;;;;;;;;5044996;28;20468;-83
2023/06/12 10:20:46;;;;;;;;;;;;;;;;;;5043031;28;19933;-83
2023/06/12 10:23:13;;;;;;;;;;;;;;;;;;5042546;28;19939;-81
2023/06/12 10:25:46;;;;;;;;;;;;;;;;;;5046111;28;19939;-80
2023/06/12 10:28:18;;;;;;;;;;;;;;;;;;5055469;28;19924;-81
2023/06/12 10:30:51;;;;;;;;;;;;;;;;;;5038571;28;20748;-82
2023/06/12 10:33:25;;;;;;;;;;;;;;;;;;5039768;28;19929;-79
2023/06/12 10:35:52;;;;;;;;;;;;;;;;;;5042046;28;19932;-82
2023/06/12 10:38:21;;;;;;;;;;;;;;;;;;5038947;28;20284;-79
2023/06/12 10:40:49;;;;;;;;;;;;;;;;;;5038773;28;19932;-83
2023/06/12 10:43:16;;;;;;;;;;;;;;;;;;5043068;28;19940;-81
2023/06/12 10:45:44;;;;;;;;;;;;;;;;;;5018608;28;20403;-82
2023/06/12 10:48:11;;;;;;;;;;;;;;;;;;5045416;28;20661;-81
2023/06/12 10:50:39;;;;;;;;;;;;;;;;;;5053155;28;19939;-79
2023/06/12 10:53:07;;;;;;;;;;;;;;;;;;5039316;28;19928;-81
2023/06/12 10:55:34;;;;;;;;;;;;;;;;;;5046455;28;19939;-86
2023/06/12 10:58:03;;;;;;;;;;;;;;;;;;5050319;28;19944;-80
2023/06/12 11:00:31;;;;;;;;;;;;;;;;;;5045528;28;19963;-81
2023/06/12 11:02:59;;;;;;;;;;;;;;;;;;5047870;28;20423;-84
2023/06/12 11:05:27;;;;;;;;;;;;;;;;;;5044856;28;19932;-82
2023/06/12 11:07:55;;;;;;;;;;;;;;;;;;5046811;28;19932;-82
2023/06/12 11:10:27;;;;;;;;;;;;;;;;;;5045284;28;20501;-80
2023/06/12 11:12:56;;;;;;;;;;;;;;;;;;5050581;28;19932;-82
2023/06/12 11:15:24;;;;;;;;;;;;;;;;;;5040434;28;19932;-83
2023/06/12 11:17:56;;;;;;;;;;;;;;;;;;5043832;28;19933;-82
2023/06/12 11:20:24;;;;;;;;;;;;;;;;;;5040376;28;19932;-79
2023/06/12 11:22:52;;;;;;;;;;;;;;;;;;5042463;28;20474;-79
2023/06/12 11:25:19;;;;;;;;;;;;;;;;;;5040843;28;19933;-81
2023/06/12 11:27:47;;;;;;;;;;;;;;;;;;5040890;28;19939;-87
2023/06/12 11:30:20;;;;;;;;;;;;;;;;;;5042825;28;19932;-82
2023/06/12 11:32:47;;;;;;;;;;;;;;;;;;5049047;28;19933;-81
2023/06/12 11:35:20;;;;;;;;;;;;;;;;;;5045367;28;19941;-81
2023/06/12 11:37:47;;;;;;;;;;;;;;;;;;5045017;28;19932;-80
2023/06/12 11:40:15;;;;;;;;;;;;;;;;;;5044034;28;19932;-82
2023/06/12 11:42:47;;;;;;;;;;;;;;;;;;5038808;28;20747;-82
2023/06/12 11:45:20;;;;;;;;;;;;;;;;;;5011987;28;19932;-84
2023/06/12 11:47:48;;;;;;;;;;;;;;;;;;5039635;28;19933;-84
2023/06/12 11:50:16;;;;;;;;;;;;;;;;;;5047783;28;19945;-82
2023/06/12 11:52:43;;;;;;;;;;;;;;;;;;5047910;28;19940;-83
2023/06/12 11:55:11;;;;;;;;;;;;;;;;;;5034104;28;19932;-81
2023/06/12 11:57:39;;;;;;;;;;;;;;;;;;5041940;28;19939;-82
2023/06/12 12:00:12;;;;;;;;;;;;;;;;;;5039124;28;19932;-81
2023/06/12 12:02:40;;;;;;;;;;;;;;;;;;5039285;28;19933;-82
2023/06/12 12:05:08;;;;;;;;;;;;;;;;;;5045920;28;19936;-85
2023/06/12 12:07:35;;;;;;;;;;;;;;;;;;5045203;28;19956;-84
2023/06/12 12:10:03;;;;;;;;;;;;;;;;;;5044566;28;19932;-81
2023/06/12 12:12:31;;;;;;;;;;;;;;;;;;5048438;28;19939;-80
2023/06/12 12:14:59;;;;;;;;;;;;;;;;;;5050594;28;19932;-81
2023/06/12 12:17:27;;;;;;;;;;;;;;;;;;5048165;28;20304;-81
2023/06/12 12:19:55;;;;;;;;;;;;;;;;;;5049856;28;19932;-83
2023/06/12 12:22:23;;;;;;;;;;;;;;;;;;5054823;28;19939;-81
2023/06/12 12:24:55;;;;;;;;;;;;;;;;;;5043916;28;19951;-83
2023/06/12 12:27:23;;;;;;;;;;;;;;;;;;5049528;28;20540;-83
2023/06/12 12:29:51;;;;;;;;;;;;;;;;;;5043705;28;19932;-84
2023/06/12 12:32:23;;;;;;;;;;;;;;;;;;5045644;28;20466;-83
2023/06/12 12:34:57;;;;;;;;;;;;;;;;;;5042503;28;19928;-85
2023/06/12 12:37:24;;;;;;;;;;;;;;;;;;5051208;28;19928;-84
2023/06/12 12:39:52;;;;;;;;;;;;;;;;;;5043462;28;19939;-81
2023/06/12 12:42:25;;;;;;;;;;;;;;;;;;5051281;28;19932;-84
2023/06/12 12:44:53;;;;;;;;;;;;;;;;;;5032191;28;19939;-82
2023/06/12 12:47:21;;;;;;;;;;;;;;;;;;5045283;28;19932;-85
2023/06/12 12:49:49;;;;;;;;;;;;;;;;;;5044396;28;19932;-83
2023/06/12 12:52:16;;;;;;;;;;;;;;;;;;5049202;28;19932;-82
2023/06/12 12:54:49;;;;;;;;;;;;;;;;;;5047924;28;19951;-83
2023/06/12 12:57:16;;;;;;;;;;;;;;;;;;5052216;28;22015;-87
2023/06/12 12:59:45;;;;;;;;;;;;;;;;;;5046363;28;19983;-84
2023/06/12 13:02:12;;;;;;;;;;;;;;;;;;5033910;28;19928;-85
2023/06/12 13:04:45;;;;;;;;;;;;;;;;;;5038872;28;19933;-86
2023/06/12 13:07:18;;;;;;;;;;;;;;;;;;5044355;28;20824;-82
2023/06/12 13:09:45;;;;;;;;;;;;;;;;;;5043277;28;19932;-83
2023/06/12 13:12:16;;;;;;;;;;;;;;;;;;5047479;28;19933;-84
2023/06/12 13:14:45;;;;;;;;;;;;;;;;;;5041535;28;19933;-83
2023/06/12 13:17:13;;;;;;;;;;;;;;;;;;5045859;28;20070;-84
2023/06/12 13:19:41;;;;;;;;;;;;;;;;;;5043357;28;20396;-85
2023/06/12 13:22:08;;;;;;;;;;;;;;;;;;5038210;28;19943;-81
2023/06/12 13:24:41;;;;;;;;;;;;;;;;;;5045766;28;19935;-85
2023/06/12 13:27:08;;;;;;;;;;;;;;;;;;5045895;28;19932;-81
2023/06/12 13:29:37;;;;;;;;;;;;;;;;;;5044151;28;19939;-82
2023/06/12 13:32:05;;;;;;;;;;;;;;;;;;5044912;28;19932;-81
2023/06/12 13:34:32;;;;;;;;;;;;;;;;;;5039731;28;19932;-79
2023/06/12 13:37:00;;;;;;;;;;;;;;;;;;5038039;28;19933;-81
2023/06/12 13:39:31;;;;;;;;;;;;;;;;;;5041741;28;19947;-81
2023/06/12 13:41:59;;;;;;;;;;;;;;;;;;5037413;28;19940;-80
2023/06/12 13:44:31;;;;;;;;;;;;;;;;;;5017937;28;20296;-79
2023/06/12 13:46:59;;;;;;;;;;;;;;;;;;5049167;28;19933;-84
2023/06/12 13:49:27;;;;;;;;;;;;;;;;;;5045276;28;19929;-84
2023/06/12 13:52:00;;;;;;;;;;;;;;;;;;5043733;28;20013;-82
2023/06/12 13:54:28;;;;;;;;;;;;;;;;;;5034787;28;23039;-80
2023/06/12 13:57:00;;;;;;;;;;;;;;;;;;5040851;28;19939;-83
2023/06/12 13:59:28;;;;;;;;;;;;;;;;;;5034932;28;19933;-82
2023/06/12 14:02:03;;;;;;;;;;;;;;;;;;5039604;28;21289;-83
2023/06/12 14:04:36;;;;;;;;;;;;;;;;;;5037338;28;20630;-81
2023/06/12 14:07:08;;;;;;;;;;;;;;;;;;5041258;28;20381;-84
2023/06/12 14:09:50;;;;;;;;;;;;;;;;;;5047347;28;19959;-81
2023/06/12 14:12:22;;;;;;;;;;;;;;;;;;5059041;28;19932;-83
2023/06/12 14:14:50;;;;;;;;;;;;;;;;;;5049621;28;19955;-82
2023/06/12 14:17:23;;;;;;;;;;;;;;;;;;5033775;28;19933;-79
2023/06/12 14:20:03;;;;;;;;;;;;;;;;;;5041544;28;20392;-85
2023/06/12 14:22:31;;;;;;;;;;;;;;;;;;5039921;28;20403;-81
2023/06/12 14:24:59;;;;;;;;;;;;;;;;;;5038640;28;19932;-79
2023/06/12 14:27:28;;;;;;;;;;;;;;;;;;5040232;28;19928;-80
2023/06/12 14:29:55;;;;;;;;;;;;;;;;;;5046235;28;19929;-81
2023/06/12 14:32:28;;;;;;;;;;;;;;;;;;5037719;28;20387;-82
2023/06/12 14:34:55;;;;;;;;;;;;;;;;;;5041577;28;19940;-83
2023/06/12 14:37:23;;;;;;;;;;;;;;;;;;5042132;28;19948;-84
2023/06/12 14:39:50;;;;;;;;;;;;;;;;;;5040384;28;19932;-82
2023/06/12 14:42:23;;;;;;;;;;;;;;;;;;5038171;28;20648;-81
2023/06/12 14:44:51;;;;;;;;;;;;;;;;;;5012190;28;19967;-84
2023/06/12 14:47:23;;;;;;;;;;;;;;;;;;5042129;28;19933;-82
2023/06/12 14:49:51;;;;;;;;;;;;;;;;;;5042701;28;19940;-79
2023/06/12 14:52:19;;;;;;;;;;;;;;;;;;5046304;28;19931;-83
2023/06/12 14:54:46;;;;;;;;;;;;;;;;;;5044157;28;21672;-80
2023/06/12 14:57:14;;;;;;;;;;;;;;;;;;5045248;28;19929;-80
2023/06/12 14:59:42;;;;;;;;;;;;;;;;;;5040857;28;20423;-80
2023/06/12 15:02:14;;;;;;;;;;;;;;;;;;5036686;28;20451;-85
2023/06/12 15:04:47;;;;;;;;;;;;;;;;;;5042703;28;19939;-80
2023/06/12 15:07:15;;;;;;;;;;;;;;;;;;5045101;28;20647;-78
2023/06/12 15:09:47;;;;;;;;;;;;;;;;;;5041998;28;20538;-83
2023/06/12 15:12:15;;;;;;;;;;;;;;;;;;5044983;28;20712;-81
2023/06/12 15:14:42;;;;;;;;;;;;;;;;;;5048963;28;19935;-81
2023/06/12 15:17:15;;;;;;;;;;;;;;;;;;5036636;28;21617;-81
2023/06/12 15:19:43;;;;;;;;;;;;;;;;;;5040725;28;20669;-81
2023/06/12 15:22:15;;;;;;;;;;;;;;;;;;5044451;28;20721;-81
2023/06/12 15:24:43;;;;;;;;;;;;;;;;;;5040829;28;19940;-81
2023/06/12 15:27:11;;;;;;;;;;;;;;;;;;5042051;28;20480;-81
2023/06/12 15:29:38;;;;;;;;;;;;;;;;;;5044848;28;19932;-81
2023/06/12 15:32:06;;;;;;;;;;;;;;;;;;5040438;28;19939;-82
2023/06/12 15:34:33;;;;;;;;;;;;;;;;;;5039440;28;19933;-81
2023/06/12 15:37:15;;;;;;;;;;;;;;;;;;5043355;28;19924;-80
2023/06/12 15:39:43;;;;;;;;;;;;;;;;;;5052138;28;19943;-83
2023/06/12 15:42:15;;;;;;;;;;;;;;;;;;5052533;28;20395;-81
2023/06/12 15:44:56;;;;;;;;;;;;;;;;;;5035129;28;20300;-81
2023/06/12 15:47:24;;;;;;;;;;;;;;;;;;5054051;28;21575;-80
2023/06/12 15:49:52;;;;;;;;;;;;;;;;;;5042214;28;19932;-82
2023/06/12 15:52:24;;;;;;;;;;;;;;;;;;5044587;28;19936;-81
2023/06/12 15:54:52;;;;;;;;;;;;;;;;;;5042208;28;20285;-82
2023/06/12 15:57:24;;;;;;;;;;;;;;;;;;5043133;28;19966;-81
2023/06/12 15:59:57;;;;;;;;;;;;;;;;;;5043521;28;19939;-79
2023/06/12 16:02:26;;;;;;;;;;;;;;;;;;5043676;28;19940;-80
2023/06/12 16:04:55;;;;;;;;;;;;;;;;;;5039874;28;19939;-82
2023/06/12 16:07:22;;;;;;;;;;;;;;;;;;5042916;28;19932;-84
2023/06/12 16:09:50;;;;;;;;;;;;;;;;;;5044186;28;20011;-83
2023/06/12 16:12:23;;;;;;;;;;;;;;;;;;5047208;28;19940;-84
2023/06/12 16:14:50;;;;;;;;;;;;;;;;;;5050405;28;19932;-83
2023/06/12 16:17:23;;;;;;;;;;;;;;;;;;5048563;28;19933;-82
2023/06/12 16:19:50;;;;;;;;;;;;;;;;;;5046877;28;20325;-87
2023/06/12 16:22:20;;;;;;;;;;;;;;;;;;5046818;28;19929;-82
2023/06/12 16:24:49;;;;;;;;;;;;;;;;;;5043618;28;19924;-82
2023/06/12 16:27:17;;;;;;;;;;;;;;;;;;5045028;28;19946;-83
2023/06/12 16:29:44;;;;;;;;;;;;;;;;;;5040157;28;21286;-81
2023/06/12 16:32:17;;;;;;;;;;;;;;;;;;5044693;28;19952;-84
2023/06/12 16:34:45;;;;;;;;;;;;;;;;;;5043496;28;20679;-82
2023/06/12 16:37:13;;;;;;;;;;;;;;;;;;5042122;28;19935;-81
2023/06/12 16:39:41;;;;;;;;;;;;;;;;;;5044517;28;19933;-82
2023/06/12 16:42:10;;;;;;;;;;;;;;;;;;5036972;28;19955;-82
2023/06/12 16:44:37;;;;;;;;;;;;;;;;;;5018061;28;19931;-80
2023/06/12 16:47:06;;;;;;;;;;;;;;;;;;5038348;28;19932;-81
2023/06/12 16:49:38;;;;;;;;;;;;;;;;;;5036473;28;19933;-81
2023/06/12 16:52:06;;;;;;;;;;;;;;;;;;5041133;28;19932;-83
2023/06/12 16:54:38;;;;;;;;;;;;;;;;;;5046188;28;19932;-83
2023/06/12 16:57:07;;;;;;;;;;;;;;;;;;5044826;28;19933;-82
2023/06/12 16:59:35;;;;;;;;;;;;;;;;;;5047712;28;19932;-81
2023/06/12 17:02:03;;;;;;;;;;;;;;;;;;5041208;28;19933;-84